Station SKXA2 - Skagway MXAK, AK Image indicating link to RSS feed of recent meteorological observations for station SKXA2


Conditions at SKXA2 as of
(12:02 pm AKDT)
2002 GMT on 05/09/2026:
     

Click on the graph icon in the table below to see a time series plot of the last five days of that observation.

5-day plot - Wind Direction Wind Direction (WDIR):ESE ( 120 deg true )
5-day plot - Wind Speed Wind Speed (WSPD): 1.9 kts
5-day plot - Wind Gust Wind Gust (GST): 1.9 kts
5-day plot - Air Temperature Air Temperature (ATMP): 43.5 °F
5-day plot - Dew Point Dew Point (DEWP): 41.4 °F
5-day plot - Wind Speed at 10 Meters Wind Speed at 10 meters (WSPD10M): 1.9 kts
5-day plot - Wind Speed at 20 Meters Wind Speed at 20 meters (WSPD20M): 1.9 kts
5-day plot -  Wind Speed, Wind Gust and Atmospheric Pressure Combined plot of Wind Speed, Gust, and Air Pressure
Previous observations
TIME
(AKDT)
5-day plot - Wind Direction
WDIR
 
5-day plot - Wind Speed
WSPD
kts
5-day plot - Wind Gust
GST
kts
5-day plot - Wave Height
WVHT
ft
5-day plot - Dominant Wave Period
DPD
sec
5-day plot - Average Wave Period
APD
sec
5-day plot - Mean Wave Direction
MWD
 
5-day plot - Atmospheric Pressure
PRES
in
5-day plot - Pressure Tendency
PTDY
in
5-day plot - Air Temperature
ATMP
°F
5-day plot - Water Temperature
WTMP
°F
5-day plot - Dew Point
DEWP
°F
5-day plot - Salinity
SAL
psu
5-day plot - Visibility
VIS
nmi
5-day plot - Tide (above MLLW)
TIDE
ft
2026-05-09 11:52 am- 0.0 1.0------ 43.7- 41.5---
2026-05-09 11:42 am SW 1.9 2.9------ 43.2- 41.4---
2026-05-09 11:32 am SW 4.1 5.1------ 42.8- 40.6---
2026-05-09 11:22 amWSW 1.9 2.9------ 43.2- 40.6---
2026-05-09 11:12 amWNW 1.9 2.9------ 43.0- 40.8---
2026-05-09 11:02 amSSW 5.1 8.0------ 42.6- 40.5---
2026-05-09 10:52 am SW 2.9 6.0------ 43.0- 40.5---
2026-05-09 10:42 am N 1.9 5.1------ 43.3- 40.8---
2026-05-09 10:32 am N 1.9 6.0------ 43.5- 41.0---
2026-05-09 10:22 amNNW 2.9 7.0------ 43.5- 41.0---
2026-05-09 10:12 am W 2.9 8.0------ 43.5- 40.8---
2026-05-09 10:02 amNNW 4.1 7.0------ 43.9- 41.2---
2026-05-09 09:52 amNNW 1.9 7.0------ 43.9- 41.2---
2026-05-09 09:42 amWNW 1.9 6.0------ 43.7- 41.2---
2026-05-09 09:32 am SE 1.9 4.1------ 43.5- 40.8---
2026-05-09 09:22 am N 2.9 6.0------ 43.2- 41.0---
2026-05-09 09:12 am N 1.9 5.1------ 43.0- 40.8---
2026-05-09 09:02 am N 4.1 6.0------ 42.8- 40.6---
2026-05-09 08:52 am N 1.9 6.0------ 42.6- 40.5---
2026-05-09 08:42 amENE 1.0 2.9------ 42.6- 40.5---
2026-05-09 08:32 am SE 1.0 1.9------ 42.4- 40.6---
2026-05-09 08:22 am NW 1.0 2.9------ 42.4- 40.3---
2026-05-09 08:12 am SW 1.0 2.9------ 42.4- 40.3---
2026-05-09 08:02 amWNW 1.9 2.9------ 42.4- 40.3---
2026-05-09 07:52 amWNW 1.0 2.9------ 42.4- 40.3---
2026-05-09 07:42 amESE 1.0 2.9------ 42.4- 40.3---
2026-05-09 07:32 am S 1.9 2.9------ 42.3- 40.1---
2026-05-09 07:22 am N 1.9 4.1------ 42.3- 40.1---
2026-05-09 07:12 amNNE 1.9 4.1------ 42.1- 39.9---
2026-05-09 07:02 am N 2.9 5.1------ 41.9- 39.7---
2026-05-09 06:52 am NE 1.9 2.9------ 42.1- 39.9---
2026-05-09 06:42 am E 2.9 4.1------ 41.9- 39.7---
2026-05-09 06:32 am NE 2.9 6.0------ 41.9- 39.7---
2026-05-09 06:22 amWSW 1.9 2.9------ 42.1- 39.9---
2026-05-09 06:12 am SW 4.1 6.0------ 41.9- 39.7---
2026-05-09 06:02 amSSW 8.0 11.1------ 41.7- 39.6---
2026-05-09 05:52 am SW 6.0 8.9------ 41.5- 39.4---
2026-05-09 05:42 am SW 1.9 4.1------ 41.5- 39.4---
2026-05-09 05:32 amWNW 1.9 2.9------ 41.5- 39.4---
2026-05-09 05:22 am NE 1.0 1.9------ 41.9- 39.7---
2026-05-09 05:12 am NE 1.9 2.9------ 41.9- 39.7---
2026-05-09 05:02 am NE 1.9 2.9------ 41.9- 39.7---
2026-05-09 04:52 am NE 1.9 2.9------ 41.7- 39.6---
2026-05-09 04:42 am NE 1.0 1.9------ 42.1- 39.9---
2026-05-09 04:32 amNNE 1.0 1.9------ 42.1- 39.9---
2026-05-09 04:22 amENE 1.0 1.9------ 42.3- 40.1---
2026-05-09 04:12 am- 0.0 1.0------ 42.3- 40.1---
2026-05-09 04:02 am- 0.0 1.9------ 42.3- 40.1---
2026-05-09 03:52 amNNW 1.0 1.9------ 42.1- 39.9---
2026-05-09 03:42 am- 0.0 1.9------ 42.3- 40.1---
2026-05-09 03:32 am- 0.0 1.0------ 42.4- 40.3---
2026-05-09 03:22 amWSW 1.9 2.9------ 42.3- 40.1---
2026-05-09 03:12 am- 0.0 1.9------ 42.4- 40.3---
2026-05-09 03:02 am- 0.0 1.0------ 42.6- 40.5---
2026-05-09 02:52 amNNW 1.9 1.9------ 42.4- 40.3---
2026-05-09 02:42 am NW 1.0 2.9------ 42.4- 40.3---
2026-05-09 02:32 am NW 1.0 1.9------ 42.6- 40.5---
2026-05-09 02:22 amSSW 1.0 1.9------ 42.6- 40.5---
2026-05-09 02:12 am- 0.0 1.0------ 43.0- 40.8---
2026-05-09 02:02 am- 0.0 1.0------ 43.0- 40.8---
2026-05-09 01:52 amENE 1.0 1.9------ 42.8- 40.6---
2026-05-09 01:42 am NE 1.9 1.9------ 42.8- 40.6---
2026-05-09 01:32 am NE 1.0 1.9------ 42.8- 40.6---
2026-05-09 01:22 amENE 1.9 2.9------ 42.6- 40.5---
2026-05-09 01:12 am NE 1.9 2.9------ 42.8- 40.6---
2026-05-09 01:02 amENE 1.9 2.9------ 42.6- 40.5---
2026-05-09 12:52 amNNE 1.0 1.9------ 43.0- 40.8---
2026-05-09 12:42 am NE 1.9 2.9------ 43.0- 40.8---
2026-05-09 12:32 amENE 1.9 2.9------ 42.8- 40.6---
2026-05-09 12:22 amENE 1.9 2.9------ 42.8- 40.6---
2026-05-09 12:12 am NE 1.9 2.9------ 43.2- 41.0---
2026-05-09 12:02 amENE 1.9 2.9------ 43.2- 41.0---
2026-05-08 11:52 pm E 1.0 1.9------ 43.3- 41.2---
2026-05-08 11:42 pm- 0.0 1.9------ 43.5- 41.0---
2026-05-08 11:32 pm- 0.0 1.9------ 43.3- 40.8---
2026-05-08 11:22 pm- 0.0 1.9------ 43.5- 41.0---
2026-05-08 11:12 pm W 1.9 1.9------ 43.5- 41.0---
2026-05-08 11:02 pmESE 1.0 1.9------ 43.7- 41.0---
2026-05-08 10:52 pmSSW 2.9 5.1------ 43.5- 40.8---
2026-05-08 10:42 pmSSW 2.9 5.1------ 43.3- 40.6---
2026-05-08 10:32 pmSSW 4.1 5.1------ 43.5- 40.8---
2026-05-08 10:22 pm SW 2.9 4.1------ 43.7- 41.0---
2026-05-08 10:12 pm S 2.9 4.1------ 43.7- 41.0---
2026-05-08 10:02 pmSSW 2.9 5.1------ 43.7- 41.0---
2026-05-08 09:52 pm SW 2.9 4.1------ 43.9- 41.2---
2026-05-08 09:42 pmSSW 4.1 5.1------ 44.2- 41.2---
2026-05-08 09:32 pm W 2.9 5.1------ 44.4- 41.0---
2026-05-08 09:22 pmSSW 1.9 4.1------ 45.0- 41.0---
2026-05-08 09:12 pm NE 1.9 4.1------ 45.1- 40.8---
2026-05-08 09:02 pm N 4.1 6.0------ 45.1- 41.2---
2026-05-08 08:52 pmNNW 4.1 7.0------ 45.1- 41.2---
2026-05-08 08:42 pm SW 1.9 4.1------ 45.3- 41.0---
2026-05-08 08:32 pm NW 1.0 1.9------ 45.5- 41.2---
2026-05-08 08:22 pm N 1.9 2.9------ 45.5- 41.2---
2026-05-08 08:12 pm- 0.0 1.9------ 45.5- 41.2---
2026-05-08 08:02 pm SE 1.9 2.9------ 45.3- 41.0---
2026-05-08 07:52 pmWNW 1.0 2.9------ 45.1- 40.8---
2026-05-08 07:42 pmSSW 1.9 2.9------ 45.0- 40.6---
2026-05-08 07:32 pm W 1.9 2.9------ 45.1- 40.6---
2026-05-08 07:22 pm W 1.0 2.9------ 45.3- 40.1---
2026-05-08 07:12 pm- 0.0 1.9------ 45.3- 39.9---
2026-05-08 07:02 pm- 0.0 1.9------ 45.0- 39.7---
2026-05-08 06:52 pmWSW 1.9 1.9------ 44.6- 40.1---
2026-05-08 06:42 pm SW 1.9 2.9------ 44.2- 40.1---
2026-05-08 06:32 pm SW 2.9 4.1------ 44.2- 40.8---
2026-05-08 06:22 pm SW 4.1 5.1------ 44.2- 40.6---
2026-05-08 06:12 pm SW 4.1 6.0------ 44.2- 40.3---
2026-05-08 06:02 pm SW 5.1 6.0------ 44.4- 40.5---
2026-05-08 05:52 pm SW 2.9 5.1------ 45.3- 39.9---
2026-05-08 05:42 pm SW 1.9 5.1------ 45.5- 40.3---
2026-05-08 05:32 pmSSW 1.0 2.9------ 45.3- 40.1---
2026-05-08 05:22 pmSSW 2.9 5.1------ 45.3- 39.6---
2026-05-08 05:12 pmSSW 7.0 11.1------ 45.0- 39.2---
2026-05-08 05:02 pmSSW 11.1 13.0------ 44.8- 37.9---
2026-05-08 04:52 pmSSW 13.0 17.1------ 44.8- 39.4---
2026-05-08 04:42 pmSSW 15.9 20.0------ 44.6- 39.4---
2026-05-08 04:32 pm SW 15.9 19.0------ 44.4- 39.6---
2026-05-08 04:22 pmSSW 15.0 18.1------ 44.8- 39.9---
2026-05-08 04:12 pmSSW 15.0 18.1------ 45.9- 39.0---
2026-05-08 04:02 pmSSW 18.1 21.0------ 46.6- 38.1---
2026-05-08 03:52 pmSSW 19.0 22.0------ 47.1- 37.0---
2026-05-08 03:42 pmSSW 17.1 21.0------ 46.8- 37.8---
2026-05-08 03:32 pmSSW 17.1 20.0------ 46.8- 38.1---
2026-05-08 03:22 pmSSW 17.1 22.0------ 47.1- 37.4---
2026-05-08 03:12 pmSSW 17.1 21.0------ 47.3- 36.5---
2026-05-08 03:02 pmSSW 17.1 21.0------ 47.5- 36.0---
2026-05-08 02:52 pmSSW 15.9 21.0------ 47.7- 35.6---
2026-05-08 02:42 pmSSW 17.1 20.0------ 48.2- 35.4---
2026-05-08 02:32 pmSSW 17.1 22.0------ 48.2- 35.8---
2026-05-08 02:22 pmSSW 17.1 21.0------ 48.7- 34.2---
2026-05-08 02:12 pmSSW 15.9 22.0------ 49.1- 34.0---
2026-05-08 02:02 pmSSW 17.1 22.0------ 49.3- 34.2---
2026-05-08 01:52 pmSSW 17.1 24.1------ 49.1- 33.1---
2026-05-08 01:42 pmSSW 19.0 25.1------ 49.3- 32.4---
2026-05-08 01:32 pmSSW 18.1 24.1------ 49.3- 32.4---
2026-05-08 01:22 pmSSW 19.0 26.0------ 50.0- 31.1---
2026-05-08 01:12 pmSSW 18.1 24.1------ 49.5- 32.5---
2026-05-08 01:02 pmSSW 18.1 22.9------ 48.9- 32.9---
2026-05-08 12:52 pmSSW 15.0 20.0------ 50.9- 31.8---
2026-05-08 12:42 pmSSW 14.0 18.1------ 51.1- 32.0---
2026-05-08 12:32 pmSSW 13.0 15.9------ 51.8- 30.6---
2026-05-08 12:22 pmSSW 13.0 15.9------ 50.7- 31.6---
2026-05-08 12:12 pmSSW 15.0 18.1------ 48.0- 34.7---
2026-05-08 12:02 pmSSW 15.9 18.1------ 47.8- 33.8---
2026-05-08 11:52 amSSW 15.0 18.1------ 47.5- 34.3---